createdAt,value
2023-04-07T00:02:44.862Z,48.08
2023-04-07T00:07:55.986Z,43.76
2023-04-07T00:12:58.400Z,49.01
2023-04-07T00:18:00.040Z,48.52
2023-04-07T00:23:01.660Z,48.29
2023-04-07T00:28:03.587Z,46.86
2023-04-07T00:33:05.558Z,49.16
2023-04-07T00:38:11.496Z,47.99
2023-04-07T00:43:13.185Z,46.83
2023-04-07T00:48:14.832Z,46.83
2023-04-07T00:53:17.055Z,47.79
2023-04-07T00:58:18.930Z,46.07
2023-04-07T01:03:35.685Z,49.35
2023-04-07T01:08:54.253Z,48.50
2023-04-07T01:13:58.497Z,46.77
2023-04-07T01:19:09.068Z,41.90
2023-04-07T01:24:34.538Z,45.59
2023-04-07T01:29:47.513Z,42.94
2023-04-07T01:34:50.769Z,44.24
2023-04-07T01:39:52.735Z,42.29
2023-04-07T01:44:54.949Z,44.17
2023-04-07T01:50:00.625Z,44.70
2023-04-07T01:55:04.371Z,44.78
2023-04-07T02:00:06.988Z,44.71
2023-04-07T02:05:12.680Z,44.92
2023-04-07T02:10:17.582Z,45.87
2023-04-07T02:15:19.583Z,44.86
2023-04-07T02:20:22.809Z,44.09
2023-04-07T02:25:28.488Z,46.13
2023-04-07T02:30:30.685Z,45.44
2023-04-07T02:35:32.297Z,46.17
2023-04-07T02:40:34.015Z,46.33
2023-04-07T02:45:35.734Z,48.76
2023-04-07T02:50:37.696Z,48.16
2023-04-07T02:55:39.372Z,46.84
2023-04-07T03:00:41.056Z,46.03
2023-04-07T03:05:42.678Z,44.87
2023-04-07T03:10:44.614Z,44.68
2023-04-07T03:15:46.291Z,45.76
2023-04-07T03:20:48.843Z,45.21
2023-04-07T03:25:50.537Z,45.00
2023-04-07T03:30:52.267Z,44.79
2023-04-07T03:35:54.064Z,45.35
2023-04-07T03:40:55.970Z,43.87
2023-04-07T03:45:57.900Z,43.32
2023-04-07T03:50:59.810Z,43.84
2023-04-07T03:56:01.504Z,43.26
2023-04-07T04:01:03.483Z,45.08
2023-04-07T04:06:05.966Z,44.17
2023-04-07T04:11:07.685Z,44.86
2023-04-07T04:16:09.727Z,44.88
2023-04-07T04:21:11.384Z,44.24
2023-04-07T04:26:13.108Z,43.98
2023-04-07T04:31:14.957Z,46.39
2023-04-07T04:36:16.680Z,45.77
2023-04-07T04:41:18.359Z,47.60
2023-04-07T04:46:20.022Z,47.26
2023-04-07T04:51:21.734Z,47.35
2023-04-07T04:56:23.486Z,46.41
2023-04-07T05:01:25.476Z,45.95
2023-04-07T05:06:27.667Z,45.04
2023-04-07T05:11:29.366Z,45.27
2023-04-07T05:16:31.505Z,45.59
2023-04-07T05:21:33.216Z,45.72
2023-04-07T05:26:34.863Z,44.32
2023-04-07T05:31:37.525Z,43.56
2023-04-07T05:36:39.323Z,46.18
2023-04-07T05:41:41.336Z,45.20
2023-04-07T05:46:42.990Z,45.68
2023-04-07T05:51:45.819Z,45.14
2023-04-07T05:56:48.320Z,41.84
2023-04-07T06:01:50.118Z,42.70
2023-04-07T06:06:55.289Z,41.20
2023-04-07T06:11:57.107Z,43.16
2023-04-07T06:16:58.888Z,50.39
2023-04-07T06:22:00.751Z,47.39
2023-04-07T06:27:03.843Z,44.37
2023-04-07T06:32:06.789Z,46.92
2023-04-07T06:37:08.632Z,46.50
2023-04-07T06:42:10.456Z,45.05
2023-04-07T06:47:12.332Z,45.47
2023-04-07T06:52:14.011Z,42.64
2023-04-07T06:57:15.799Z,43.05
2023-04-07T07:02:17.786Z,46.35
2023-04-07T07:07:19.552Z,45.02
2023-04-07T07:12:21.437Z,44.34
2023-04-07T07:17:23.173Z,46.01
2023-04-07T07:22:25.147Z,46.83
2023-04-07T07:27:27.218Z,48.05
2023-04-07T07:32:28.997Z,48.08
2023-04-07T07:37:30.782Z,49.59
2023-04-07T07:42:32.498Z,49.14
2023-04-07T07:47:34.483Z,44.79
2023-04-07T07:52:36.505Z,45.57
2023-04-07T07:57:38.168Z,43.55
2023-04-07T08:02:40.107Z,43.74
2023-04-07T08:07:43.214Z,42.88
2023-04-07T08:12:44.887Z,43.37
2023-04-07T08:17:46.640Z,42.84
2023-04-07T08:22:48.734Z,42.39
2023-04-07T08:27:50.678Z,47.09
2023-04-07T08:32:52.541Z,44.16
2023-04-07T08:37:54.250Z,43.85
2023-04-07T08:43:00.465Z,43.27
2023-04-07T08:48:09.698Z,44.40
2023-04-07T08:53:14.702Z,43.74
2023-04-07T08:58:16.935Z,43.62
2023-04-07T09:03:19.662Z,43.13
2023-04-07T09:08:21.365Z,45.39
2023-04-07T09:13:24.887Z,43.55
2023-04-07T09:18:28.679Z,44.77
2023-04-07T09:23:41.112Z,43.61
2023-04-07T09:28:43.535Z,46.02
2023-04-07T09:33:45.391Z,45.16
2023-04-07T09:38:47.248Z,43.57
2023-04-07T09:43:49.200Z,44.95
2023-04-07T09:49:07.420Z,47.07
2023-04-07T09:54:10.328Z,47.50
2023-04-07T09:59:12.356Z,44.86
2023-04-07T10:04:14.226Z,43.88
2023-04-07T10:09:18.003Z,44.65
2023-04-07T10:14:21.597Z,42.60
2023-04-07T10:19:24.774Z,43.57
2023-04-07T10:24:51.154Z,43.75
2023-04-07T10:29:54.103Z,43.88
2023-04-07T10:34:58.084Z,43.04
2023-04-07T10:40:21.703Z,41.50
2023-04-07T10:45:52.391Z,41.07
2023-04-07T10:51:06.337Z,40.97
2023-04-07T10:56:08.281Z,40.35
2023-04-07T11:06:32.934Z,47.39
2023-04-07T11:11:39.934Z,46.62
2023-04-07T11:16:43.416Z,46.47
2023-04-07T11:21:45.112Z,45.32
2023-04-07T11:26:47.957Z,44.32
2023-04-07T11:31:51.580Z,42.89
2023-04-07T11:36:53.371Z,44.33
2023-04-07T11:41:55.085Z,42.97
2023-04-07T11:46:59.230Z,43.65
2023-04-07T11:52:06.985Z,43.62
2023-04-07T11:57:12.671Z,43.50
2023-04-07T12:02:31.439Z,42.91
2023-04-07T12:07:33.465Z,44.37
2023-04-07T12:12:35.016Z,42.06
2023-04-07T12:17:36.589Z,43.09
2023-04-07T12:22:38.254Z,42.74
2023-04-07T12:27:43.568Z,43.15
2023-04-07T12:32:45.582Z,42.54
2023-04-07T12:37:49.029Z,43.75
2023-04-07T12:42:52.053Z,45.43
2023-04-07T12:47:53.751Z,48.26
2023-04-07T12:52:55.353Z,45.19
2023-04-07T12:57:56.911Z,46.45
2023-04-07T13:02:58.857Z,49.01
2023-04-07T13:08:00.745Z,47.94
2023-04-07T13:13:02.625Z,51.48
2023-04-07T13:18:04.449Z,51.19
2023-04-07T13:23:09.656Z,49.65
2023-04-07T13:28:12.013Z,48.05
2023-04-07T13:33:13.620Z,51.32
2023-04-07T13:38:15.613Z,53.36
2023-04-07T13:43:19.079Z,52.48
2023-04-07T13:48:20.756Z,52.04
2023-04-07T13:53:23.086Z,51.63
2023-04-07T13:58:25.229Z,54.44
2023-04-07T14:03:27.861Z,53.54
2023-04-07T14:08:29.810Z,50.26
2023-04-07T14:13:31.547Z,47.57
2023-04-07T14:18:33.354Z,47.56
2023-04-07T14:23:37.686Z,50.95
2023-04-07T14:28:40.056Z,48.39
2023-04-07T14:33:45.714Z,47.43
2023-04-07T14:38:47.502Z,49.69
2023-04-07T14:43:53.659Z,52.35
2023-04-07T14:48:57.572Z,49.99
2023-04-07T14:53:59.233Z,47.38
2023-04-07T14:59:01.168Z,47.48
2023-04-07T15:04:02.988Z,46.72
2023-04-07T15:09:04.713Z,49.02
2023-04-07T15:14:06.902Z,51.33
2023-04-07T15:19:08.482Z,51.77
2023-04-07T15:24:10.075Z,48.44
2023-04-07T15:29:11.686Z,48.18
2023-04-07T15:34:14.035Z,50.36
2023-04-07T15:39:16.887Z,45.77
2023-04-07T15:44:19.113Z,46.82
2023-04-07T15:49:24.251Z,48.98
2023-04-07T15:54:27.403Z,48.26
2023-04-07T15:59:30.977Z,47.91
2023-04-07T16:04:32.803Z,46.73
2023-04-07T16:09:34.389Z,45.61
2023-04-07T16:14:36.440Z,44.56
2023-04-07T16:19:38.115Z,45.64
2023-04-07T16:24:39.718Z,47.91
2023-04-07T16:29:41.486Z,52.72
2023-04-07T16:34:43.085Z,46.82
2023-04-07T16:39:44.804Z,47.17
2023-04-07T16:44:46.549Z,47.21
2023-04-07T16:49:48.210Z,50.01
2023-04-07T16:54:51.136Z,51.86
2023-04-07T16:59:52.895Z,52.08
2023-04-07T17:04:54.473Z,49.75
2023-04-07T17:09:56.085Z,51.70
2023-04-07T17:14:57.636Z,52.50
2023-04-07T17:19:59.843Z,48.96
2023-04-07T17:25:01.518Z,51.69
2023-04-07T17:30:04.038Z,50.38
2023-04-07T17:35:05.997Z,45.55
2023-04-07T17:40:08.299Z,47.65
2023-04-07T17:45:10.812Z,45.72
2023-04-07T17:50:12.501Z,49.09
2023-04-07T17:55:14.232Z,51.00
2023-04-07T18:00:16.093Z,50.80
2023-04-07T18:05:17.685Z,49.81
2023-04-07T18:10:19.341Z,50.88
2023-04-07T18:15:21.146Z,52.91
2023-04-07T18:20:23.057Z,50.32
2023-04-07T18:25:24.712Z,50.13
2023-04-07T18:30:26.498Z,51.25
2023-04-07T18:35:28.590Z,48.67
2023-04-07T18:40:32.740Z,50.61
2023-04-07T18:45:36.839Z,48.61
2023-04-07T18:50:38.701Z,48.52
2023-04-07T18:55:40.361Z,47.91
2023-04-07T19:00:42.784Z,48.64
2023-04-07T19:05:47.442Z,45.19
2023-04-07T19:10:51.042Z,49.80
2023-04-07T19:15:52.948Z,50.41
2023-04-07T19:20:55.440Z,51.64
2023-04-07T19:25:57.074Z,48.22
2023-04-07T19:30:58.689Z,49.77
2023-04-07T19:36:01.422Z,49.47
2023-04-07T19:41:03.313Z,50.67
2023-04-07T19:46:06.356Z,49.49
2023-04-07T19:51:08.171Z,49.47
2023-04-07T19:56:11.077Z,48.15
2023-04-07T20:01:19.210Z,48.56
2023-04-07T20:06:24.751Z,49.04
2023-04-07T20:11:26.488Z,49.48
2023-04-07T20:16:32.027Z,48.96
2023-04-07T20:21:33.681Z,49.99
2023-04-07T20:26:35.288Z,51.87
2023-04-07T20:31:37.043Z,49.70
2023-04-07T20:36:38.708Z,50.01
2023-04-07T20:41:42.858Z,49.91
2023-04-07T20:46:46.152Z,50.68
2023-04-07T20:51:48.040Z,48.13
2023-04-07T20:56:49.603Z,48.50
2023-04-07T21:01:51.299Z,46.60
2023-04-07T21:06:52.925Z,45.80
2023-04-07T21:11:54.762Z,45.31
2023-04-07T21:16:56.363Z,44.92
2023-04-07T21:21:58.138Z,44.94
2023-04-07T21:27:01.192Z,45.02
2023-04-07T21:32:02.873Z,46.49
2023-04-07T21:37:04.427Z,45.26
2023-04-07T21:42:06.020Z,46.73
2023-04-07T21:47:07.609Z,45.81
2023-04-07T21:52:09.330Z,46.08
2023-04-07T21:57:11.543Z,47.85
2023-04-07T22:02:13.587Z,46.71
2023-04-07T22:07:15.262Z,48.16
2023-04-07T22:12:16.839Z,47.33
2023-04-07T22:17:18.442Z,47.53
2023-04-07T22:22:20.006Z,46.38
2023-04-07T22:27:21.642Z,45.15
2023-04-07T22:32:23.392Z,48.13
2023-04-07T22:37:25.062Z,46.89
2023-04-07T22:42:26.650Z,47.02
2023-04-07T22:47:28.232Z,47.40
2023-04-07T22:52:29.809Z,45.51
2023-04-07T22:57:31.392Z,45.22
2023-04-07T23:02:33.156Z,48.58
2023-04-07T23:07:34.834Z,47.70
2023-04-07T23:12:37.966Z,47.88
2023-04-07T23:17:40.039Z,48.76
2023-04-07T23:22:41.819Z,45.25
2023-04-07T23:27:43.471Z,44.71
2023-04-07T23:32:45.176Z,44.57
2023-04-07T23:37:46.982Z,43.87
2023-04-07T23:42:48.557Z,45.04
2023-04-07T23:47:50.316Z,46.93
2023-04-07T23:52:51.946Z,45.06
2023-04-07T23:57:53.573Z,44.90
